This is the latest recevied weather packets stored in our database for station/object WMKJ. If no packets are shown the sender has not sent any weather packets the latest 10 day(s).
| Time | Temp. | Humidity | Pressure | Rain* | Wind** | Luminosity | Snow |
|---|---|---|---|---|---|---|---|
| 1788138902 | 77° F | 78% | 759.1 mmHg | - | - | - | - |
| 1788135286 | 77° F | 73% | 759.1 mmHg | - | - | - | - |
| 1788131686 | 75° F | 78% | 759.1 mmHg | - | - | - | - |
| 1788128086 | 75° F | 83% | 759.8 mmHg | - | - | - | - |
| 1788124491 | 75° F | 94% | 759.1 mmHg | - | - | - | - |
| 1788120897 | 75° F | 94% | 758.3 mmHg | - | - | - | - |
| 1788117285 | 75° F | 94% | 758.3 mmHg | - | - | - | - |
| 1788113685 | 75° F | 94% | 759.1 mmHg | - | - | - | - |
| 1788110091 | 77° F | 94% | 759.1 mmHg | - | - | - | - |
| 1788106495 | 77° F | 94% | 759.1 mmHg | - | - | - | - |
| 1788102885 | 78° F | 88% | 759.1 mmHg | - | - | - | - |
| 1788099285 | 80° F | 83% | 759.1 mmHg | - | - | - | - |
| 1788095691 | 82° F | 78% | 758.3 mmHg | - | - | - | - |
| 1788092094 | 84° F | 70% | 757.6 mmHg | - | - | - | - |
| 1788088485 | 86° F | 66% | 756.8 mmHg | - | - | - | - |
| 1788084884 | 86° F | 62% | 756.8 mmHg | - | - | - | - |
| 1788081290 | 87° F | 62% | 756.8 mmHg | - | - | - | - |
| 1788077694 | 89° F | 55% | 756.8 mmHg | - | - | - | - |
| 1788074084 | 91° F | 52% | 756.8 mmHg | - | - | - | - |
| 1788070484 | 91° F | 52% | 757.6 mmHg | - | - | - | - |
| 1788066890 | 93° F | 52% | 758.3 mmHg | - | - | - | - |
| 1788063284 | 89° F | 59% | 759.1 mmHg | - | - | - | - |
| 1788059699 | 87° F | 66% | 759.1 mmHg | - | - | - | - |
| 1788056083 | 82° F | 74% | 759.8 mmHg | - | - | - | - |
| 1788052491 | 80° F | 78% | 759.1 mmHg | - | - | - | - |
* Rain since midnight (hover to see other rain measurements)
** Current wind speed in m/s (hover to see current wind gust speed)